createdAt,value
2018-03-19T00:00:11.160Z,4
2018-03-19T00:01:12.545Z,0
2018-03-19T00:02:13.924Z,4
2018-03-19T00:03:15.318Z,4
2018-03-19T00:04:16.688Z,4
2018-03-19T00:05:18.080Z,4
2018-03-19T00:06:19.463Z,4
2018-03-19T00:07:20.844Z,4
2018-03-19T00:08:22.223Z,4
2018-03-19T00:09:23.616Z,0
2018-03-19T00:10:24.998Z,4
2018-03-19T00:11:26.505Z,4
2018-03-19T00:12:27.917Z,4
2018-03-19T00:13:29.294Z,4
2018-03-19T00:14:30.680Z,0
2018-03-19T00:15:32.063Z,4
2018-03-19T00:16:33.442Z,4
2018-03-19T00:17:34.822Z,4
2018-03-19T00:18:36.202Z,0
2018-03-19T00:19:37.582Z,4
2018-03-19T00:20:38.961Z,4
2018-03-19T00:21:40.341Z,4
2018-03-19T00:22:41.731Z,0
2018-03-19T00:23:43.113Z,0
2018-03-19T00:24:44.498Z,4
2018-03-19T00:25:45.875Z,4
2018-03-19T00:26:47.255Z,0
2018-03-19T00:27:48.699Z,4
2018-03-19T00:28:50.021Z,4
2018-03-19T00:29:51.404Z,4
2018-03-19T00:30:52.787Z,0
2018-03-19T00:31:54.169Z,4
2018-03-19T00:32:55.550Z,4
2018-03-19T00:33:56.925Z,4
2018-03-19T00:34:58.307Z,4
2018-03-19T00:35:59.684Z,4
2018-03-19T00:37:01.082Z,4
2018-03-19T00:38:02.458Z,4
2018-03-19T00:39:03.845Z,0
2018-03-19T00:40:05.223Z,4
2018-03-19T00:41:06.619Z,4
2018-03-19T00:42:08.001Z,4
2018-03-19T00:43:09.380Z,4
2018-03-19T00:44:10.764Z,4
2018-03-19T00:45:12.143Z,4
2018-03-19T00:46:13.533Z,0
2018-03-19T00:47:14.911Z,0
2018-03-19T00:48:16.292Z,4
2018-03-19T00:49:17.678Z,4
2018-03-19T00:50:19.056Z,4
2018-03-19T00:51:20.440Z,0
2018-03-19T00:52:21.819Z,4
2018-03-19T00:53:23.200Z,4
2018-03-19T00:54:24.583Z,4
2018-03-19T00:55:25.963Z,0
2018-03-19T00:56:27.343Z,4
2018-03-19T00:57:28.725Z,4
2018-03-19T00:58:30.105Z,0
2018-03-19T00:59:31.484Z,4
2018-03-19T01:00:32.881Z,4
2018-03-19T01:01:34.273Z,4
2018-03-19T01:02:35.652Z,0
2018-03-19T01:03:37.050Z,4
2018-03-19T01:04:38.429Z,4
2018-03-19T01:05:39.811Z,4
2018-03-19T01:06:41.193Z,0
2018-03-19T01:07:42.584Z,4
2018-03-19T01:08:43.976Z,4
2018-03-19T01:09:45.356Z,0
2018-03-19T01:10:46.735Z,4
2018-03-19T01:11:48.113Z,4
2018-03-19T01:12:49.490Z,4
2018-03-19T01:13:50.873Z,0
2018-03-19T01:14:52.258Z,4
2018-03-19T01:15:53.638Z,4
2018-03-19T01:16:55.040Z,0
2018-03-19T01:17:56.420Z,4
2018-03-19T01:18:57.800Z,4
2018-03-19T01:19:59.178Z,4
2018-03-19T01:21:00.567Z,4
2018-03-19T01:22:01.950Z,4
2018-03-19T01:23:03.326Z,4
2018-03-19T01:24:04.704Z,4
2018-03-19T01:25:06.086Z,4
2018-03-19T01:26:07.470Z,4
2018-03-19T01:27:08.847Z,0
2018-03-19T01:28:10.226Z,4
2018-03-19T01:29:11.609Z,0
2018-03-19T01:30:13.721Z,0
2018-03-19T01:31:15.103Z,4
2018-03-19T01:32:16.485Z,0
2018-03-19T01:33:17.866Z,0
2018-03-19T01:34:19.256Z,4
2018-03-19T01:35:20.641Z,0
2018-03-19T01:36:22.042Z,0
2018-03-19T01:37:23.405Z,4
2018-03-19T01:38:24.789Z,4
2018-03-19T01:39:26.168Z,4
2018-03-19T01:40:27.553Z,0
2018-03-19T01:41:28.934Z,4
2018-03-19T01:42:30.317Z,0
2018-03-19T01:43:31.704Z,0
2018-03-19T01:44:33.087Z,4
2018-03-19T01:45:34.464Z,4
2018-03-19T01:46:35.853Z,4
2018-03-19T01:47:37.234Z,4
2018-03-19T01:48:38.690Z,4
2018-03-19T01:49:40.109Z,4
2018-03-19T01:50:41.497Z,4
2018-03-19T01:51:42.919Z,4
2018-03-19T01:52:44.284Z,4
2018-03-19T01:53:45.671Z,4
2018-03-19T01:54:47.055Z,4
2018-03-19T01:55:48.444Z,4
2018-03-19T01:56:49.904Z,4
2018-03-19T01:57:51.285Z,4
2018-03-19T01:58:52.670Z,4
2018-03-19T01:59:54.054Z,4
2018-03-19T02:00:55.455Z,4
2018-03-19T02:01:56.830Z,4
2018-03-19T02:02:58.217Z,0
2018-03-19T02:03:59.601Z,4
2018-03-19T02:05:01.001Z,4
2018-03-19T02:06:02.381Z,4
2018-03-19T02:07:03.766Z,4
2018-03-19T02:08:05.150Z,4
2018-03-19T02:09:06.530Z,4
2018-03-19T02:10:07.925Z,4
2018-03-19T02:11:09.311Z,4
2018-03-19T02:12:10.707Z,4
2018-03-19T02:13:12.091Z,4
2018-03-19T02:14:13.469Z,4
2018-03-19T02:15:14.853Z,4
2018-03-19T02:16:16.236Z,4
2018-03-19T02:17:17.614Z,4
2018-03-19T02:18:19.027Z,4
2018-03-19T02:19:20.412Z,4
2018-03-19T02:20:21.798Z,4
2018-03-19T02:21:23.172Z,4
2018-03-19T02:22:24.555Z,4
2018-03-19T02:23:25.938Z,4
2018-03-19T02:24:27.327Z,4
2018-03-19T02:25:28.701Z,4
2018-03-19T02:26:30.085Z,0
2018-03-19T02:27:31.463Z,4
2018-03-19T02:28:32.845Z,4
2018-03-19T02:29:34.231Z,0
2018-03-19T02:30:35.608Z,4
2018-03-19T02:31:36.991Z,4
2018-03-19T02:32:38.376Z,0
2018-03-19T02:33:39.761Z,4
2018-03-19T02:34:41.142Z,4
2018-03-19T02:35:42.523Z,0
2018-03-19T02:36:43.901Z,4
2018-03-19T02:37:45.292Z,4
2018-03-19T02:38:46.716Z,4
2018-03-19T02:39:48.099Z,4
2018-03-19T02:40:49.484Z,4
2018-03-19T02:41:50.875Z,4
2018-03-19T02:42:52.264Z,4
2018-03-19T02:43:53.647Z,4
2018-03-19T02:44:55.028Z,4
2018-03-19T02:45:56.408Z,4
2018-03-19T02:46:57.831Z,4
2018-03-19T02:47:59.173Z,4
2018-03-19T02:49:00.551Z,0
2018-03-19T02:50:01.948Z,4
2018-03-19T02:51:03.324Z,4
2018-03-19T02:52:04.706Z,4
2018-03-19T02:53:06.087Z,4
2018-03-19T02:54:07.471Z,4
2018-03-19T02:55:08.857Z,4
2018-03-19T02:56:10.231Z,4
2018-03-19T02:57:11.612Z,4
2018-03-19T02:58:12.991Z,4
2018-03-19T02:59:14.393Z,4
2018-03-19T03:00:15.766Z,4
2018-03-19T03:01:17.150Z,4
2018-03-19T03:02:18.531Z,0
2018-03-19T03:03:19.921Z,4
2018-03-19T03:04:21.302Z,4
2018-03-19T03:05:22.687Z,0
2018-03-19T03:06:24.071Z,4
2018-03-19T03:07:25.451Z,4
2018-03-19T03:08:26.828Z,0
2018-03-19T03:09:28.216Z,4
2018-03-19T03:10:29.599Z,4
2018-03-19T03:11:30.975Z,4
2018-03-19T03:12:32.361Z,4
2018-03-19T03:13:33.737Z,4
2018-03-19T03:14:35.115Z,4
2018-03-19T03:15:36.496Z,4
2018-03-19T03:16:37.875Z,4
2018-03-19T03:17:39.269Z,4
2018-03-19T03:18:40.650Z,4
2018-03-19T03:19:42.038Z,4
2018-03-19T03:20:43.413Z,4
2018-03-19T03:21:44.820Z,4
2018-03-19T03:22:46.203Z,4
2018-03-19T03:23:47.588Z,4
2018-03-19T03:24:48.968Z,4
2018-03-19T03:25:50.343Z,4
2018-03-19T03:26:51.764Z,4
2018-03-19T03:27:53.207Z,0
2018-03-19T03:28:54.589Z,4
2018-03-19T03:29:55.978Z,4
2018-03-19T03:30:57.364Z,4
2018-03-19T03:31:58.766Z,0
2018-03-19T03:33:00.142Z,4
2018-03-19T03:34:01.545Z,4
2018-03-19T03:35:02.916Z,4
2018-03-19T03:36:04.317Z,4
2018-03-19T03:37:05.707Z,4
2018-03-19T03:38:07.092Z,0
2018-03-19T03:39:08.498Z,4
2018-03-19T03:40:09.894Z,4
2018-03-19T03:41:11.263Z,4
2018-03-19T03:42:12.653Z,4
2018-03-19T03:43:14.041Z,4
2018-03-19T03:44:15.422Z,0
2018-03-19T03:45:16.809Z,4
2018-03-19T03:46:18.192Z,4
2018-03-19T03:47:19.576Z,4
2018-03-19T03:48:20.975Z,4
2018-03-19T03:49:22.361Z,4
2018-03-19T03:50:23.742Z,4
2018-03-19T03:51:25.128Z,4
2018-03-19T03:52:26.528Z,4
2018-03-19T03:53:27.898Z,4
2018-03-19T03:54:29.278Z,4
2018-03-19T03:55:30.664Z,4
2018-03-19T03:56:32.049Z,4
2018-03-19T03:57:33.449Z,0
2018-03-19T03:58:34.834Z,4
2018-03-19T03:59:36.231Z,4
2018-03-19T04:00:37.623Z,4
2018-03-19T04:01:39.041Z,4
2018-03-19T04:02:40.428Z,4
2018-03-19T04:03:41.815Z,4
2018-03-19T04:04:43.203Z,4
2018-03-19T04:05:44.588Z,4
2018-03-19T04:06:45.980Z,4
2018-03-19T04:07:47.361Z,0
2018-03-19T04:08:48.745Z,4
2018-03-19T04:09:50.131Z,4
2018-03-19T04:10:51.535Z,4
2018-03-19T04:11:52.915Z,4
2018-03-19T04:12:54.297Z,4
2018-03-19T04:13:55.679Z,4
2018-03-19T04:14:57.078Z,4
2018-03-19T04:15:58.516Z,4
2018-03-19T04:16:59.942Z,4
2018-03-19T04:18:01.328Z,4
2018-03-19T04:19:02.711Z,4
2018-03-19T04:20:04.120Z,4
2018-03-19T04:21:05.504Z,0
2018-03-19T04:22:06.889Z,4
2018-03-19T04:23:08.275Z,4
2018-03-19T04:24:09.658Z,4
2018-03-19T04:25:11.041Z,4
2018-03-19T04:26:12.433Z,4
2018-03-19T04:27:13.816Z,0
2018-03-19T04:28:15.205Z,4
2018-03-19T04:29:16.587Z,4
2018-03-19T04:30:17.970Z,4
2018-03-19T04:31:19.353Z,4
2018-03-19T04:32:20.738Z,4
2018-03-19T04:33:22.138Z,4
2018-03-19T04:34:23.541Z,4
2018-03-19T04:35:24.919Z,4
2018-03-19T04:36:26.302Z,4
2018-03-19T04:37:27.688Z,4
2018-03-19T04:38:29.087Z,4
2018-03-19T04:39:30.472Z,4
2018-03-19T04:40:31.865Z,4
2018-03-19T04:41:33.252Z,4
2018-03-19T04:42:34.649Z,4
2018-03-19T04:43:36.028Z,4
2018-03-19T04:44:37.423Z,4
2018-03-19T04:45:38.834Z,4
2018-03-19T04:46:40.222Z,4
2018-03-19T04:47:41.605Z,4
2018-03-19T04:48:42.992Z,4
2018-03-19T04:49:44.374Z,4
2018-03-19T04:50:45.762Z,4
2018-03-19T04:51:47.154Z,4
2018-03-19T04:52:48.546Z,4
2018-03-19T04:53:49.924Z,4
2018-03-19T04:54:51.306Z,4
2018-03-19T04:55:52.698Z,4
2018-03-19T04:56:54.085Z,4
2018-03-19T04:57:55.470Z,4
2018-03-19T04:58:56.859Z,4
2018-03-19T04:59:58.241Z,4
2018-03-19T05:00:59.642Z,4
2018-03-19T05:02:01.030Z,4
2018-03-19T05:03:02.418Z,4
2018-03-19T05:04:03.804Z,4
2018-03-19T05:05:05.354Z,4
2018-03-19T05:06:06.739Z,4
2018-03-19T05:07:08.126Z,4
2018-03-19T05:08:09.517Z,4
2018-03-19T05:09:10.900Z,4
2018-03-19T05:10:12.306Z,4
2018-03-19T05:11:13.701Z,0
2018-03-19T05:12:15.075Z,0
2018-03-19T05:13:16.458Z,0
2018-03-19T05:14:17.845Z,0
2018-03-19T05:15:19.224Z,0
2018-03-19T05:16:20.609Z,0
2018-03-19T05:17:21.994Z,0
2018-03-19T05:18:23.380Z,4
2018-03-19T05:19:24.762Z,0
2018-03-19T05:20:26.147Z,4
2018-03-19T05:21:27.534Z,4
2018-03-19T05:22:28.938Z,4
2018-03-19T05:23:30.347Z,4
2018-03-19T05:24:31.731Z,8
2018-03-19T05:25:33.118Z,4
2018-03-19T05:26:34.497Z,8
2018-03-19T05:27:35.883Z,8
2018-03-19T05:28:37.277Z,12
2018-03-19T05:29:38.662Z,8
2018-03-19T05:30:40.051Z,12
2018-03-19T05:31:41.436Z,12
2018-03-19T05:32:42.864Z,16
2018-03-19T05:33:44.250Z,12
2018-03-19T05:34:45.641Z,16
2018-03-19T05:35:47.029Z,16
2018-03-19T05:36:48.424Z,20
2018-03-19T05:37:49.808Z,20
2018-03-19T05:38:51.191Z,24
2018-03-19T05:39:52.577Z,24
2018-03-19T05:40:53.969Z,28
2018-03-19T05:41:55.357Z,28
2018-03-19T05:42:56.742Z,32
2018-03-19T05:43:58.128Z,40
2018-03-19T05:44:59.514Z,40
2018-03-19T05:46:00.900Z,44
2018-03-19T05:47:02.287Z,44
2018-03-19T05:48:03.717Z,52
2018-03-19T05:49:05.053Z,56
2018-03-19T05:50:06.437Z,60
2018-03-19T05:51:07.819Z,60
2018-03-19T05:52:09.205Z,68
2018-03-19T05:53:10.641Z,68
2018-03-19T05:54:12.069Z,72
2018-03-19T05:55:13.466Z,76
2018-03-19T05:56:14.848Z,76
2018-03-19T05:57:16.231Z,76
2018-03-19T05:58:17.636Z,84
2018-03-19T05:59:19.027Z,84
2018-03-19T06:00:20.412Z,84
2018-03-19T06:01:21.856Z,88
2018-03-19T06:02:23.195Z,88
2018-03-19T06:03:24.578Z,92
2018-03-19T06:04:25.962Z,92
2018-03-19T06:05:27.393Z,96
2018-03-19T06:06:28.781Z,104
2018-03-19T06:07:30.169Z,104
2018-03-19T06:08:31.587Z,104
2018-03-19T06:09:32.972Z,104
2018-03-19T06:10:34.355Z,108
2018-03-19T06:11:35.742Z,112
2018-03-19T06:12:37.130Z,112
2018-03-19T06:13:38.516Z,116
2018-03-19T06:14:39.904Z,120
2018-03-19T06:15:41.292Z,128
2018-03-19T06:16:42.684Z,132
2018-03-19T06:17:44.078Z,136
2018-03-19T06:18:45.458Z,140
2018-03-19T06:19:46.851Z,140
2018-03-19T06:20:48.234Z,148
2018-03-19T06:21:49.639Z,152
2018-03-19T06:22:51.023Z,156
2018-03-19T06:23:52.502Z,160
2018-03-19T06:24:53.894Z,168
2018-03-19T06:25:55.283Z,172
2018-03-19T06:26:56.668Z,176
2018-03-19T06:27:58.057Z,180
2018-03-19T06:28:59.442Z,184
2018-03-19T06:30:00.837Z,192
2018-03-19T06:31:02.242Z,204
2018-03-19T06:32:03.715Z,212
2018-03-19T06:33:05.104Z,216
2018-03-19T06:34:06.489Z,232
2018-03-19T06:35:07.959Z,240
2018-03-19T06:36:09.372Z,244
2018-03-19T06:37:10.762Z,248
2018-03-19T06:38:12.151Z,256
2018-03-19T06:39:13.609Z,264
2018-03-19T06:40:14.997Z,272
2018-03-19T06:41:16.425Z,280
2018-03-19T06:42:17.958Z,296
2018-03-19T06:43:19.345Z,304
2018-03-19T06:44:20.731Z,312
2018-03-19T06:45:22.126Z,324
2018-03-19T06:46:23.516Z,336
2018-03-19T06:47:24.903Z,352
2018-03-19T06:48:26.291Z,364
2018-03-19T06:49:27.682Z,372
2018-03-19T06:50:29.069Z,388
2018-03-19T06:51:30.458Z,400
2018-03-19T06:52:31.881Z,408
2018-03-19T06:53:33.265Z,416
2018-03-19T06:54:34.650Z,424
2018-03-19T06:55:36.054Z,432
2018-03-19T06:56:37.432Z,444
2018-03-19T06:57:38.812Z,452
2018-03-19T06:58:40.203Z,460
2018-03-19T06:59:41.591Z,476
2018-03-19T07:00:42.978Z,488
2018-03-19T07:01:44.383Z,504
2018-03-19T07:02:45.769Z,520
2018-03-19T07:03:47.160Z,540
2018-03-19T07:04:48.549Z,564
2018-03-19T07:05:49.939Z,600
2018-03-19T07:06:51.323Z,636
2018-03-19T07:07:52.714Z,668
2018-03-19T07:08:54.100Z,696
2018-03-19T07:09:55.487Z,712
2018-03-19T07:10:56.871Z,732
2018-03-19T07:11:58.256Z,740
2018-03-19T07:12:59.640Z,752
2018-03-19T07:14:01.018Z,744
2018-03-19T07:15:02.411Z,740
2018-03-19T07:16:03.792Z,740
2018-03-19T07:17:05.177Z,760
2018-03-19T07:18:06.558Z,760
2018-03-19T07:19:07.976Z,772
2018-03-19T07:20:09.372Z,796
2018-03-19T07:21:10.752Z,820
2018-03-19T07:22:12.136Z,844
2018-03-19T07:23:13.534Z,864
2018-03-19T07:24:14.917Z,884
2018-03-19T07:25:16.302Z,900
2018-03-19T07:26:17.688Z,932
2018-03-19T07:27:19.074Z,972
2018-03-19T07:28:20.486Z,1000
2018-03-19T07:29:21.896Z,1020
2018-03-19T07:30:23.328Z,1056
2018-03-19T07:31:24.750Z,1076
2018-03-19T07:32:26.135Z,1092
2018-03-19T07:33:27.519Z,1112
2018-03-19T07:34:28.907Z,1160
2018-03-19T07:35:30.290Z,1212
2018-03-19T07:36:31.672Z,1216
2018-03-19T07:37:33.058Z,1200
2018-03-19T07:38:34.443Z,1208
2018-03-19T07:39:35.827Z,1228
2018-03-19T07:40:37.223Z,1240
2018-03-19T07:41:38.619Z,1260
2018-03-19T07:42:40.008Z,1288
2018-03-19T07:43:41.388Z,1320
2018-03-19T07:44:42.782Z,1344
2018-03-19T07:45:44.171Z,1356
2018-03-19T07:46:45.555Z,1352
2018-03-19T07:47:46.944Z,1332
2018-03-19T07:48:48.329Z,1352
2018-03-19T07:49:49.712Z,1364
2018-03-19T07:50:51.093Z,1344
2018-03-19T07:51:52.479Z,1324
2018-03-19T07:52:53.877Z,1308
2018-03-19T07:53:55.258Z,1296
2018-03-19T07:54:56.664Z,1292
2018-03-19T07:55:58.051Z,1316
2018-03-19T07:56:59.431Z,1336
2018-03-19T07:58:00.817Z,1348
2018-03-19T07:59:02.222Z,1372
2018-03-19T08:00:03.594Z,1416
2018-03-19T08:01:04.979Z,1448
2018-03-19T08:02:06.371Z,1456
2018-03-19T08:03:07.754Z,1452
2018-03-19T08:04:09.146Z,1472
2018-03-19T08:05:10.527Z,1512
2018-03-19T08:06:11.912Z,1524
2018-03-19T08:07:13.298Z,1512
2018-03-19T08:08:14.716Z,1516
2018-03-19T08:09:16.103Z,1568
2018-03-19T08:10:17.489Z,1664
2018-03-19T08:11:18.888Z,1772
2018-03-19T08:12:20.340Z,1860
2018-03-19T08:13:21.667Z,1928
2018-03-19T08:14:23.051Z,2000
2018-03-19T08:15:24.437Z,2064
2018-03-19T08:16:25.825Z,2136
2018-03-19T08:17:27.210Z,2188
2018-03-19T08:18:28.617Z,2240
2018-03-19T08:19:30.130Z,2280
2018-03-19T08:20:31.525Z,2316
2018-03-19T08:21:32.927Z,2352
2018-03-19T08:22:34.319Z,2388
2018-03-19T08:23:35.724Z,2456
2018-03-19T08:24:37.092Z,2504
2018-03-19T08:25:38.475Z,2512
2018-03-19T08:26:39.864Z,2500
2018-03-19T08:27:41.251Z,2508
2018-03-19T08:28:42.648Z,2532
2018-03-19T08:29:44.087Z,2532
2018-03-19T08:30:45.446Z,2524
2018-03-19T08:31:46.846Z,2500
2018-03-19T08:32:48.223Z,2428
2018-03-19T08:33:49.609Z,2392
2018-03-19T08:34:50.990Z,2372
2018-03-19T08:35:52.390Z,2368
2018-03-19T08:36:53.787Z,2376
2018-03-19T08:37:55.174Z,2424
2018-03-19T08:38:56.565Z,2516
2018-03-19T08:39:57.965Z,2608
2018-03-19T08:40:59.383Z,2692
2018-03-19T08:42:00.768Z,2720
2018-03-19T08:43:02.153Z,2724
2018-03-19T08:44:03.608Z,2720
2018-03-19T08:45:04.992Z,2752
2018-03-19T08:46:06.385Z,2816
2018-03-19T08:47:07.775Z,2900
2018-03-19T08:48:09.164Z,2932
2018-03-19T08:49:10.545Z,2916
2018-03-19T08:50:11.942Z,2920
2018-03-19T08:51:13.328Z,2912
2018-03-19T08:52:14.712Z,2836
2018-03-19T08:53:16.110Z,2724
2018-03-19T08:54:17.516Z,2652
2018-03-19T08:55:18.901Z,2612
2018-03-19T08:56:20.287Z,2584
2018-03-19T08:57:21.688Z,2572
2018-03-19T08:58:23.072Z,2612
2018-03-19T08:59:24.465Z,2656
2018-03-19T09:00:25.847Z,2688
2018-03-19T09:01:27.260Z,2732
2018-03-19T09:02:28.639Z,2820
2018-03-19T09:03:30.026Z,2912
2018-03-19T09:04:31.420Z,3000
2018-03-19T09:05:32.799Z,3068
2018-03-19T09:06:34.212Z,3124
2018-03-19T09:07:35.601Z,3160
2018-03-19T09:08:37.026Z,3164
2018-03-19T09:09:38.421Z,3148
2018-03-19T09:10:39.809Z,3116
2018-03-19T09:11:41.195Z,3084
2018-03-19T09:12:42.587Z,3052
2018-03-19T09:13:43.976Z,3012
2018-03-19T09:14:45.360Z,2992
2018-03-19T09:15:46.744Z,2960
2018-03-19T09:16:48.165Z,2904
2018-03-19T09:17:49.515Z,2860
2018-03-19T09:18:50.904Z,2804
2018-03-19T09:19:52.300Z,2768
2018-03-19T09:20:53.687Z,2776
2018-03-19T09:21:55.078Z,2804
2018-03-19T09:22:56.464Z,2860
2018-03-19T09:23:57.852Z,2928
2018-03-19T09:24:59.238Z,3016
2018-03-19T09:26:00.624Z,3096
2018-03-19T09:27:02.022Z,3188
2018-03-19T09:28:03.405Z,3296
2018-03-19T09:29:04.797Z,3476
2018-03-19T09:30:06.186Z,3616
2018-03-19T09:31:07.603Z,3648
2018-03-19T09:32:08.958Z,3652
2018-03-19T09:33:10.351Z,3660
2018-03-19T09:34:11.773Z,3776
2018-03-19T09:35:13.180Z,3848
2018-03-19T09:36:14.542Z,3860
2018-03-19T09:37:15.964Z,3944
2018-03-19T09:38:17.349Z,3960
2018-03-19T09:39:18.734Z,4028
2018-03-19T09:40:20.122Z,4176
2018-03-19T09:41:21.510Z,4272
2018-03-19T09:42:22.915Z,4468
2018-03-19T09:43:24.304Z,4400
2018-03-19T09:44:25.750Z,4348
2018-03-19T09:45:27.086Z,4384
2018-03-19T09:46:28.470Z,4648
2018-03-19T09:47:29.859Z,4496
2018-03-19T09:48:31.249Z,4352
2018-03-19T09:49:32.639Z,4220
2018-03-19T09:50:34.021Z,4164
2018-03-19T09:51:35.409Z,4144
2018-03-19T09:52:36.808Z,4216
2018-03-19T09:53:38.195Z,4188
2018-03-19T09:54:39.604Z,4076
2018-03-19T09:55:40.973Z,3940
2018-03-19T09:56:42.364Z,3740
2018-03-19T09:57:43.761Z,3556
2018-03-19T09:58:45.284Z,3468
2018-03-19T09:59:46.686Z,3464
2018-03-19T10:00:48.075Z,3460
2018-03-19T10:01:49.461Z,3416
2018-03-19T10:02:50.906Z,3448
2018-03-19T10:03:52.265Z,3496
2018-03-19T10:04:53.638Z,3536
2018-03-19T10:05:55.024Z,3532
2018-03-19T10:06:56.414Z,3488
2018-03-19T10:07:57.801Z,3464
2018-03-19T10:08:59.194Z,3436
2018-03-19T10:10:00.578Z,3408
2018-03-19T10:11:01.966Z,3368
2018-03-19T10:12:03.354Z,3400
2018-03-19T10:13:04.742Z,3340
2018-03-19T10:14:06.130Z,3416
2018-03-19T10:15:07.519Z,3596
2018-03-19T10:16:08.923Z,4036
2018-03-19T10:17:10.306Z,3896
2018-03-19T10:18:11.697Z,3836
2018-03-19T10:19:13.086Z,3976
2018-03-19T10:20:14.473Z,4244
2018-03-19T10:21:15.860Z,4280
2018-03-19T10:22:17.255Z,4372
2018-03-19T10:23:18.641Z,4516
2018-03-19T10:24:20.028Z,4688
2018-03-19T10:25:21.432Z,4640
2018-03-19T10:26:22.811Z,4764
2018-03-19T10:27:24.197Z,4784
2018-03-19T10:28:25.582Z,4724
2018-03-19T10:29:26.969Z,4608
2018-03-19T10:30:28.354Z,4432
2018-03-19T10:31:29.750Z,4208
2018-03-19T10:32:31.138Z,4220
2018-03-19T10:33:32.554Z,4340
2018-03-19T10:34:33.910Z,4444
2018-03-19T10:35:35.299Z,4548
2018-03-19T10:36:36.685Z,4652
2018-03-19T10:37:38.074Z,4756
2018-03-19T10:38:39.469Z,4748
2018-03-19T10:39:40.862Z,4856
2018-03-19T10:40:42.252Z,4936
2018-03-19T10:41:43.634Z,4724
2018-03-19T10:42:45.021Z,4764
2018-03-19T10:43:46.408Z,4632
2018-03-19T10:44:47.796Z,4596
2018-03-19T10:45:49.244Z,4404
2018-03-19T10:46:50.589Z,4300
2018-03-19T10:47:52.069Z,4152
2018-03-19T10:48:53.483Z,4116
2018-03-19T10:49:54.874Z,4052
2018-03-19T10:50:56.258Z,4128
2018-03-19T10:51:57.646Z,4292
2018-03-19T10:52:59.061Z,4792
2018-03-19T10:54:00.417Z,7296
2018-03-19T10:55:01.810Z,9884
2018-03-19T10:56:03.198Z,10752
2018-03-19T10:57:04.587Z,9960
2018-03-19T10:58:06.008Z,9636
2018-03-19T10:59:07.434Z,9840
2018-03-19T11:00:08.830Z,9948
2018-03-19T11:01:10.272Z,10200
2018-03-19T11:02:11.623Z,11820
2018-03-19T11:03:13.014Z,13184
2018-03-19T11:04:14.407Z,13036
2018-03-19T11:05:15.788Z,12984
2018-03-19T11:06:17.180Z,12896
2018-03-19T11:07:18.570Z,11632
2018-03-19T11:08:19.959Z,12424
2018-03-19T11:09:21.353Z,12676
2018-03-19T11:10:22.743Z,12736
2018-03-19T11:11:24.133Z,12792
2018-03-19T11:12:25.554Z,12396
2018-03-19T11:13:26.920Z,12868
2018-03-19T11:14:28.337Z,12620
2018-03-19T11:15:29.791Z,11832
2018-03-19T11:16:31.216Z,12640
2018-03-19T11:17:32.646Z,13256
2018-03-19T11:18:34.049Z,14720
2018-03-19T11:19:35.642Z,14864
2018-03-19T11:20:37.298Z,15004
2018-03-19T11:21:38.708Z,15164
2018-03-19T11:22:40.094Z,14840
2018-03-19T11:23:41.558Z,14852
2018-03-19T11:24:43.008Z,14780
2018-03-19T11:25:44.520Z,15276
2018-03-19T11:26:45.902Z,15520
2018-03-19T11:27:47.296Z,15840
2018-03-19T11:28:48.689Z,15840
2018-03-19T11:29:50.081Z,15776
2018-03-19T11:30:51.477Z,15488
2018-03-19T11:31:52.869Z,14580
2018-03-19T11:32:54.275Z,14276
2018-03-19T11:33:55.667Z,15264
2018-03-19T11:34:57.058Z,15424
2018-03-19T11:35:58.571Z,13836
2018-03-19T11:36:59.972Z,14216
2018-03-19T11:38:01.364Z,16064
2018-03-19T11:39:02.757Z,16000
2018-03-19T11:40:04.149Z,15840
2018-03-19T11:41:05.540Z,15904
2018-03-19T11:42:06.931Z,16160
2018-03-19T11:43:08.329Z,16000
2018-03-19T11:44:09.726Z,15156
2018-03-19T11:45:11.119Z,15680
2018-03-19T11:46:12.530Z,14556
2018-03-19T11:47:13.986Z,15024
2018-03-19T11:48:15.320Z,15148
2018-03-19T11:49:16.713Z,15808
2018-03-19T11:50:18.109Z,15392
2018-03-19T11:51:19.504Z,12388
2018-03-19T11:52:20.918Z,14260
2018-03-19T11:53:22.312Z,13520
2018-03-19T11:54:23.709Z,13844
2018-03-19T11:55:25.101Z,13968
2018-03-19T11:56:26.496Z,14548
2018-03-19T11:57:27.889Z,14668
2018-03-19T11:58:29.308Z,15392
2018-03-19T11:59:30.708Z,15140
2018-03-19T12:00:32.101Z,14472
2018-03-19T12:01:33.502Z,14860
2018-03-19T12:02:34.884Z,14700
2018-03-19T12:03:36.286Z,15128
2018-03-19T12:04:37.676Z,15648
2018-03-19T12:05:39.087Z,16032
2018-03-19T12:06:40.485Z,15840
2018-03-19T12:07:41.882Z,12616
2018-03-19T12:08:43.275Z,14392
2018-03-19T12:09:44.672Z,14940
2018-03-19T12:10:46.066Z,14044
2018-03-19T12:11:47.463Z,14044
2018-03-19T12:12:48.871Z,12872
2018-03-19T12:13:50.266Z,13912
2018-03-19T12:14:51.678Z,14616
2018-03-19T12:15:53.061Z,13204
2018-03-19T12:16:54.454Z,14256
2018-03-19T12:17:55.852Z,13916
2018-03-19T12:18:57.252Z,13968
2018-03-19T12:19:58.648Z,13332
2018-03-19T12:21:00.045Z,14152
2018-03-19T12:22:01.445Z,14608
2018-03-19T12:23:02.833Z,14520
2018-03-19T12:24:04.252Z,14420
2018-03-19T12:25:05.711Z,14368
2018-03-19T12:26:07.120Z,13220
2018-03-19T12:27:08.513Z,13376
2018-03-19T12:28:09.912Z,13288
2018-03-19T12:29:11.304Z,14088
2018-03-19T12:30:12.706Z,14592
2018-03-19T12:31:14.105Z,13880
2018-03-19T12:32:15.495Z,13044
2018-03-19T12:33:16.890Z,12816
2018-03-19T12:34:18.285Z,12436
2018-03-19T12:35:19.680Z,12084
2018-03-19T12:36:21.074Z,11880
2018-03-19T12:37:22.474Z,13320
2018-03-19T12:38:23.904Z,13524
2018-03-19T12:39:25.298Z,13248
2018-03-19T12:40:26.695Z,11888
2018-03-19T12:41:28.088Z,11748
2018-03-19T12:42:29.489Z,11888
2018-03-19T12:43:30.904Z,12484
2018-03-19T12:44:32.464Z,12536
2018-03-19T12:45:33.819Z,12024
2018-03-19T12:46:35.213Z,12672
2018-03-19T12:47:36.607Z,12372
2018-03-19T12:48:38.005Z,12912
2018-03-19T12:49:39.405Z,13296
2018-03-19T12:50:40.795Z,13100
2018-03-19T12:51:42.284Z,12788
2018-03-19T12:52:43.680Z,13064
2018-03-19T12:53:45.073Z,11932
2018-03-19T12:54:46.481Z,11996
2018-03-19T12:55:47.863Z,11792
2018-03-19T12:56:49.260Z,11620
2018-03-19T12:57:50.654Z,12256
2018-03-19T12:58:52.052Z,11916
2018-03-19T12:59:53.443Z,12256
2018-03-19T13:00:54.839Z,12088
2018-03-19T13:01:56.236Z,11908
2018-03-19T13:02:57.630Z,12140
2018-03-19T13:03:59.032Z,11820
2018-03-19T13:05:00.427Z,11972
2018-03-19T13:06:01.822Z,11952
2018-03-19T13:07:03.216Z,11964
2018-03-19T13:08:04.610Z,11872
2018-03-19T13:09:06.008Z,11892
2018-03-19T13:10:07.410Z,11824
2018-03-19T13:11:08.809Z,11576
2018-03-19T13:12:10.203Z,11064
2018-03-19T13:13:11.756Z,10792
2018-03-19T13:14:13.167Z,10660
2018-03-19T13:15:14.561Z,10180
2018-03-19T13:16:15.956Z,10756
2018-03-19T13:17:17.352Z,11220
2018-03-19T13:18:18.773Z,11544
2018-03-19T13:19:20.217Z,11524
2018-03-19T13:20:21.571Z,11176
2018-03-19T13:21:22.968Z,11160
2018-03-19T13:22:24.377Z,10952
2018-03-19T13:23:25.774Z,11168
2018-03-19T13:24:27.173Z,11064
2018-03-19T13:25:28.570Z,11220
2018-03-19T13:26:29.990Z,11052
2018-03-19T13:27:31.361Z,10996
2018-03-19T13:28:32.755Z,11248
2018-03-19T13:29:34.149Z,11292
2018-03-19T13:30:35.550Z,11304
2018-03-19T13:31:36.942Z,11216
2018-03-19T13:32:38.340Z,11268
2018-03-19T13:33:39.736Z,11164
2018-03-19T13:34:41.129Z,11344
2018-03-19T13:35:42.526Z,10884
2018-03-19T13:36:43.917Z,10008
2018-03-19T13:37:45.315Z,9376
2018-03-19T13:38:46.709Z,9544
2018-03-19T13:39:48.105Z,8952
2018-03-19T13:40:49.498Z,9144
2018-03-19T13:41:50.894Z,10332
2018-03-19T13:42:52.325Z,10448
2018-03-19T13:43:53.684Z,10236
2018-03-19T13:44:55.077Z,9124
2018-03-19T13:45:56.469Z,10220
2018-03-19T13:46:57.864Z,9872
2018-03-19T13:47:59.260Z,10256
2018-03-19T13:49:00.657Z,10208
2018-03-19T13:50:02.052Z,9972
2018-03-19T13:51:03.443Z,10344
2018-03-19T13:52:04.839Z,10440
2018-03-19T13:53:06.238Z,10092
2018-03-19T13:54:07.634Z,9816
2018-03-19T13:55:09.047Z,9340
2018-03-19T13:56:10.439Z,8764
2018-03-19T13:57:11.846Z,9544
2018-03-19T13:58:13.241Z,9680
2018-03-19T13:59:14.635Z,10428
2018-03-19T14:00:16.030Z,10396
2018-03-19T14:01:17.449Z,9968
2018-03-19T14:02:18.914Z,5864
2018-03-19T14:03:20.304Z,6324
2018-03-19T14:04:21.727Z,5036
2018-03-19T14:05:23.094Z,8904
2018-03-19T14:06:24.493Z,8892
2018-03-19T14:07:25.881Z,8976
2018-03-19T14:08:27.327Z,9248
2018-03-19T14:09:28.672Z,9128